sensor_id;sensor_type;location;lat;lon;timestamp;P1;durP1;ratioP1;P2;durP2;ratioP2
75737;SDS011;64356;45.638;13.764;2023-05-18T00:02:06;0.52;;;0.50;;
75737;SDS011;64356;45.638;13.764;2023-05-18T00:04:32;2.60;;;1.10;;
75737;SDS011;64356;45.638;13.764;2023-05-18T00:06:59;1.08;;;0.60;;
75737;SDS011;64356;45.638;13.764;2023-05-18T00:09:38;1.45;;;0.43;;
75737;SDS011;64356;45.638;13.764;2023-05-18T00:12:05;1.25;;;0.50;;
75737;SDS011;64356;45.638;13.764;2023-05-18T00:14:31;0.77;;;0.50;;
75737;SDS011;64356;45.638;13.764;2023-05-18T00:16:57;0.60;;;0.60;;
75737;SDS011;64356;45.638;13.764;2023-05-18T00:19:25;0.50;;;0.43;;
75737;SDS011;64356;45.638;13.764;2023-05-18T00:21:52;2.03;;;0.68;;
75737;SDS011;64356;45.638;13.764;2023-05-18T00:24:20;0.55;;;0.50;;
75737;SDS011;64356;45.638;13.764;2023-05-18T00:26:46;0.95;;;0.65;;
75737;SDS011;64356;45.638;13.764;2023-05-18T00:29:15;0.60;;;0.57;;
75737;SDS011;64356;45.638;13.764;2023-05-18T00:31:41;0.82;;;0.63;;
75737;SDS011;64356;45.638;13.764;2023-05-18T00:34:09;1.00;;;0.40;;
75737;SDS011;64356;45.638;13.764;2023-05-18T00:36:36;1.05;;;0.65;;
75737;SDS011;64356;45.638;13.764;2023-05-18T00:39:03;0.70;;;0.60;;
75737;SDS011;64356;45.638;13.764;2023-05-18T00:41:29;2.05;;;0.68;;
75737;SDS011;64356;45.638;13.764;2023-05-18T00:43:56;1.13;;;0.50;;
75737;SDS011;64356;45.638;13.764;2023-05-18T00:46:23;1.55;;;0.40;;
75737;SDS011;64356;45.638;13.764;2023-05-18T00:48:50;0.93;;;0.60;;
75737;SDS011;64356;45.638;13.764;2023-05-18T00:51:17;0.63;;;0.55;;
75737;SDS011;64356;45.638;13.764;2023-05-18T00:53:45;1.75;;;0.60;;
75737;SDS011;64356;45.638;13.764;2023-05-18T00:56:11;0.60;;;0.60;;
75737;SDS011;64356;45.638;13.764;2023-05-18T00:58:37;0.50;;;0.50;;
75737;SDS011;64356;45.638;13.764;2023-05-18T01:01:03;0.73;;;0.50;;
75737;SDS011;64356;45.638;13.764;2023-05-18T01:03:34;0.63;;;0.57;;
75737;SDS011;64356;45.638;13.764;2023-05-18T01:08:30;0.65;;;0.65;;
75737;SDS011;64356;45.638;13.764;2023-05-18T01:11:04;1.08;;;0.77;;
75737;SDS011;64356;45.638;13.764;2023-05-18T01:13:38;0.98;;;0.55;;
75737;SDS011;64356;45.638;13.764;2023-05-18T01:16:08;0.55;;;0.50;;
75737;SDS011;64356;45.638;13.764;2023-05-18T01:18:42;0.60;;;0.60;;
75737;SDS011;64356;45.638;13.764;2023-05-18T01:26:50;1.05;;;0.63;;
75737;SDS011;64356;45.638;13.764;2023-05-18T01:29:21;2.20;;;0.80;;
75737;SDS011;64356;45.638;13.764;2023-05-18T01:31:49;0.60;;;0.43;;
75737;SDS011;64356;45.638;13.764;2023-05-18T01:34:16;0.60;;;0.60;;
75737;SDS011;64356;45.638;13.764;2023-05-18T01:36:42;1.05;;;0.70;;
75737;SDS011;64356;45.638;13.764;2023-05-18T01:39:08;0.60;;;0.50;;
75737;SDS011;64356;45.638;13.764;2023-05-18T01:41:34;2.13;;;0.60;;
75737;SDS011;64356;45.638;13.764;2023-05-18T01:47:11;0.40;;;0.40;;
75737;SDS011;64356;45.638;13.764;2023-05-18T01:49:45;0.95;;;0.70;;
75737;SDS011;64356;45.638;13.764;2023-05-18T01:52:23;0.65;;;0.50;;
75737;SDS011;64356;45.638;13.764;2023-05-18T01:54:56;1.20;;;0.75;;
75737;SDS011;64356;45.638;13.764;2023-05-18T01:57:26;0.40;;;0.40;;
75737;SDS011;64356;45.638;13.764;2023-05-18T01:59:53;0.93;;;0.60;;
75737;SDS011;64356;45.638;13.764;2023-05-18T02:02:20;0.77;;;0.77;;
75737;SDS011;64356;45.638;13.764;2023-05-18T02:04:46;1.75;;;0.70;;
75737;SDS011;64356;45.638;13.764;2023-05-18T02:07:11;1.85;;;0.60;;
75737;SDS011;64356;45.638;13.764;2023-05-18T02:09:37;2.00;;;0.77;;
75737;SDS011;64356;45.638;13.764;2023-05-18T02:12:03;2.78;;;0.63;;
75737;SDS011;64356;45.638;13.764;2023-05-18T02:14:29;0.60;;;0.57;;
75737;SDS011;64356;45.638;13.764;2023-05-18T02:16:55;0.50;;;0.50;;
75737;SDS011;64356;45.638;13.764;2023-05-18T02:19:21;0.90;;;0.70;;
75737;SDS011;64356;45.638;13.764;2023-05-18T02:21:49;0.80;;;0.50;;
75737;SDS011;64356;45.638;13.764;2023-05-18T02:24:15;0.93;;;0.50;;
75737;SDS011;64356;45.638;13.764;2023-05-18T02:26:42;0.55;;;0.50;;
75737;SDS011;64356;45.638;13.764;2023-05-18T02:29:08;0.50;;;0.50;;
75737;SDS011;64356;45.638;13.764;2023-05-18T02:31:36;0.73;;;0.73;;
75737;SDS011;64356;45.638;13.764;2023-05-18T02:34:02;0.85;;;0.60;;
75737;SDS011;64356;45.638;13.764;2023-05-18T02:36:28;0.93;;;0.57;;
75737;SDS011;64356;45.638;13.764;2023-05-18T02:39:01;2.53;;;0.82;;
75737;SDS011;64356;45.638;13.764;2023-05-18T02:41:33;1.25;;;0.60;;
75737;SDS011;64356;45.638;13.764;2023-05-18T02:44:00;1.20;;;0.40;;
75737;SDS011;64356;45.638;13.764;2023-05-18T02:46:29;0.40;;;0.40;;
75737;SDS011;64356;45.638;13.764;2023-05-18T02:48:55;1.02;;;0.57;;
75737;SDS011;64356;45.638;13.764;2023-05-18T02:51:21;1.02;;;0.82;;
75737;SDS011;64356;45.638;13.764;2023-05-18T02:53:47;0.50;;;0.50;;
75737;SDS011;64356;45.638;13.764;2023-05-18T02:56:13;0.50;;;0.50;;
75737;SDS011;64356;45.638;13.764;2023-05-18T02:58:39;0.40;;;0.40;;
75737;SDS011;64356;45.638;13.764;2023-05-18T03:01:07;0.43;;;0.43;;
75737;SDS011;64356;45.638;13.764;2023-05-18T03:03:34;0.50;;;0.50;;
75737;SDS011;64356;45.638;13.764;2023-05-18T03:06:02;0.63;;;0.50;;
75737;SDS011;64356;45.638;13.764;2023-05-18T03:08:30;1.77;;;0.77;;
75737;SDS011;64356;45.638;13.764;2023-05-18T03:10:59;1.83;;;0.57;;
75737;SDS011;64356;45.638;13.764;2023-05-18T03:13:24;1.10;;;0.63;;
75737;SDS011;64356;45.638;13.764;2023-05-18T03:15:50;0.60;;;0.60;;
75737;SDS011;64356;45.638;13.764;2023-05-18T03:18:16;0.93;;;0.75;;
75737;SDS011;64356;45.638;13.764;2023-05-18T03:20:43;0.75;;;0.60;;
75737;SDS011;64356;45.638;13.764;2023-05-18T03:23:09;1.45;;;1.05;;
75737;SDS011;64356;45.638;13.764;2023-05-18T03:25:35;0.70;;;0.70;;
75737;SDS011;64356;45.638;13.764;2023-05-18T03:28:03;0.60;;;0.52;;
75737;SDS011;64356;45.638;13.764;2023-05-18T03:30:30;0.55;;;0.50;;
75737;SDS011;64356;45.638;13.764;2023-05-18T03:32:59;0.40;;;0.40;;
75737;SDS011;64356;45.638;13.764;2023-05-18T03:35:26;0.60;;;0.60;;
75737;SDS011;64356;45.638;13.764;2023-05-18T03:37:52;2.35;;;0.52;;
75737;SDS011;64356;45.638;13.764;2023-05-18T03:40:18;0.60;;;0.60;;
75737;SDS011;64356;45.638;13.764;2023-05-18T03:42:44;0.95;;;0.50;;
75737;SDS011;64356;45.638;13.764;2023-05-18T03:45:10;1.15;;;0.60;;
75737;SDS011;64356;45.638;13.764;2023-05-18T03:47:36;0.57;;;0.43;;
75737;SDS011;64356;45.638;13.764;2023-05-18T03:50:03;0.60;;;0.55;;
75737;SDS011;64356;45.638;13.764;2023-05-18T03:52:29;0.75;;;0.70;;
75737;SDS011;64356;45.638;13.764;2023-05-18T03:54:58;1.05;;;0.63;;
75737;SDS011;64356;45.638;13.764;2023-05-18T03:57:25;0.90;;;0.50;;
75737;SDS011;64356;45.638;13.764;2023-05-18T03:59:52;0.70;;;0.65;;
75737;SDS011;64356;45.638;13.764;2023-05-18T04:02:18;0.60;;;0.50;;
75737;SDS011;64356;45.638;13.764;2023-05-18T04:04:44;0.70;;;0.50;;
75737;SDS011;64356;45.638;13.764;2023-05-18T04:07:11;1.08;;;0.70;;
75737;SDS011;64356;45.638;13.764;2023-05-18T04:09:40;0.55;;;0.40;;
75737;SDS011;64356;45.638;13.764;2023-05-18T04:12:06;1.42;;;0.60;;
75737;SDS011;64356;45.638;13.764;2023-05-18T04:14:32;1.20;;;0.50;;
75737;SDS011;64356;45.638;13.764;2023-05-18T04:16:59;0.63;;;0.50;;
75737;SDS011;64356;45.638;13.764;2023-05-18T04:19:32;0.50;;;0.40;;
75737;SDS011;64356;45.638;13.764;2023-05-18T04:21:58;0.50;;;0.50;;
75737;SDS011;64356;45.638;13.764;2023-05-18T04:24:24;0.73;;;0.70;;
75737;SDS011;64356;45.638;13.764;2023-05-18T04:26:51;1.33;;;0.60;;
75737;SDS011;64356;45.638;13.764;2023-05-18T04:29:17;0.40;;;0.40;;
75737;SDS011;64356;45.638;13.764;2023-05-18T04:31:43;0.68;;;0.57;;
75737;SDS011;64356;45.638;13.764;2023-05-18T04:34:12;0.70;;;0.50;;
75737;SDS011;64356;45.638;13.764;2023-05-18T04:36:42;1.05;;;0.57;;
75737;SDS011;64356;45.638;13.764;2023-05-18T04:39:09;1.10;;;0.75;;
75737;SDS011;64356;45.638;13.764;2023-05-18T04:41:35;0.68;;;0.50;;
75737;SDS011;64356;45.638;13.764;2023-05-18T04:44:01;0.50;;;0.50;;
75737;SDS011;64356;45.638;13.764;2023-05-18T04:46:28;0.80;;;0.63;;
75737;SDS011;64356;45.638;13.764;2023-05-18T04:48:54;0.52;;;0.52;;
75737;SDS011;64356;45.638;13.764;2023-05-18T04:51:22;0.75;;;0.55;;
75737;SDS011;64356;45.638;13.764;2023-05-18T04:53:49;0.45;;;0.45;;
75737;SDS011;64356;45.638;13.764;2023-05-18T04:56:18;0.45;;;0.45;;
75737;SDS011;64356;45.638;13.764;2023-05-18T04:58:47;0.60;;;0.60;;
75737;SDS011;64356;45.638;13.764;2023-05-18T05:01:14;0.50;;;0.50;;
75737;SDS011;64356;45.638;13.764;2023-05-18T05:03:41;1.20;;;0.95;;
75737;SDS011;64356;45.638;13.764;2023-05-18T05:06:07;0.60;;;0.55;;
75737;SDS011;64356;45.638;13.764;2023-05-18T05:08:33;1.08;;;0.63;;
75737;SDS011;64356;45.638;13.764;2023-05-18T05:11:00;0.77;;;0.50;;
75737;SDS011;64356;45.638;13.764;2023-05-18T05:13:26;3.35;;;0.68;;
75737;SDS011;64356;45.638;13.764;2023-05-18T05:15:52;0.77;;;0.60;;
75737;SDS011;64356;45.638;13.764;2023-05-18T05:18:18;0.75;;;0.70;;
75737;SDS011;64356;45.638;13.764;2023-05-18T05:20:44;0.70;;;0.60;;
75737;SDS011;64356;45.638;13.764;2023-05-18T05:23:10;1.05;;;0.98;;
75737;SDS011;64356;45.638;13.764;2023-05-18T05:25:35;1.40;;;0.50;;
75737;SDS011;64356;45.638;13.764;2023-05-18T05:28:01;0.77;;;0.60;;
75737;SDS011;64356;45.638;13.764;2023-05-18T05:30:27;0.63;;;0.60;;
75737;SDS011;64356;45.638;13.764;2023-05-18T05:32:53;3.45;;;0.73;;
75737;SDS011;64356;45.638;13.764;2023-05-18T05:35:18;0.60;;;0.52;;
75737;SDS011;64356;45.638;13.764;2023-05-18T05:37:44;2.05;;;0.60;;
75737;SDS011;64356;45.638;13.764;2023-05-18T05:40:10;3.22;;;0.50;;
75737;SDS011;64356;45.638;13.764;2023-05-18T05:42:36;3.75;;;1.00;;
75737;SDS011;64356;45.638;13.764;2023-05-18T05:45:01;2.28;;;0.73;;
75737;SDS011;64356;45.638;13.764;2023-05-18T05:47:27;5.50;;;0.90;;
75737;SDS011;64356;45.638;13.764;2023-05-18T05:49:53;2.78;;;0.40;;
75737;SDS011;64356;45.638;13.764;2023-05-18T05:52:19;3.40;;;0.70;;
75737;SDS011;64356;45.638;13.764;2023-05-18T05:54:45;5.90;;;0.60;;
75737;SDS011;64356;45.638;13.764;2023-05-18T05:57:11;30.85;;;1.67;;
75737;SDS011;64356;45.638;13.764;2023-05-18T05:59:36;10.60;;;1.52;;
75737;SDS011;64356;45.638;13.764;2023-05-18T06:02:02;11.77;;;1.13;;
75737;SDS011;64356;45.638;13.764;2023-05-18T06:04:28;8.10;;;1.20;;
75737;SDS011;64356;45.638;13.764;2023-05-18T06:06:54;11.60;;;1.10;;
75737;SDS011;64356;45.638;13.764;2023-05-18T06:09:19;13.68;;;1.20;;
75737;SDS011;64356;45.638;13.764;2023-05-18T06:11:45;13.02;;;1.15;;
75737;SDS011;64356;45.638;13.764;2023-05-18T06:14:11;9.43;;;1.48;;
75737;SDS011;64356;45.638;13.764;2023-05-18T06:16:37;5.57;;;0.93;;
75737;SDS011;64356;45.638;13.764;2023-05-18T06:19:02;4.72;;;0.98;;
75737;SDS011;64356;45.638;13.764;2023-05-18T06:21:28;2.80;;;1.25;;
75737;SDS011;64356;45.638;13.764;2023-05-18T06:23:55;5.80;;;0.93;;
75737;SDS011;64356;45.638;13.764;2023-05-18T06:26:21;12.88;;;1.30;;
75737;SDS011;64356;45.638;13.764;2023-05-18T06:28:47;9.60;;;1.10;;
75737;SDS011;64356;45.638;13.764;2023-05-18T06:31:13;4.18;;;1.10;;
75737;SDS011;64356;45.638;13.764;2023-05-18T06:33:39;4.65;;;1.00;;
75737;SDS011;64356;45.638;13.764;2023-05-18T06:36:05;6.78;;;0.90;;
75737;SDS011;64356;45.638;13.764;2023-05-18T06:38:31;3.60;;;1.38;;
75737;SDS011;64356;45.638;13.764;2023-05-18T06:40:57;2.70;;;0.82;;
75737;SDS011;64356;45.638;13.764;2023-05-18T06:43:22;1.17;;;0.90;;
75737;SDS011;64356;45.638;13.764;2023-05-18T06:45:52;8.90;;;1.20;;
75737;SDS011;64356;45.638;13.764;2023-05-18T06:48:23;4.30;;;0.90;;
75737;SDS011;64356;45.638;13.764;2023-05-18T06:50:49;5.47;;;0.80;;
75737;SDS011;64356;45.638;13.764;2023-05-18T06:53:15;2.63;;;1.10;;
75737;SDS011;64356;45.638;13.764;2023-05-18T06:55:41;5.07;;;1.00;;
75737;SDS011;64356;45.638;13.764;2023-05-18T06:58:06;4.55;;;0.93;;
75737;SDS011;64356;45.638;13.764;2023-05-18T07:00:32;13.27;;;1.35;;
75737;SDS011;64356;45.638;13.764;2023-05-18T07:02:58;11.02;;;1.80;;
75737;SDS011;64356;45.638;13.764;2023-05-18T07:05:24;13.05;;;2.03;;
75737;SDS011;64356;45.638;13.764;2023-05-18T07:07:49;27.17;;;3.58;;
75737;SDS011;64356;45.638;13.764;2023-05-18T07:10:15;26.85;;;4.70;;
75737;SDS011;64356;45.638;13.764;2023-05-18T07:12:41;22.35;;;3.78;;
75737;SDS011;64356;45.638;13.764;2023-05-18T07:15:06;16.02;;;3.17;;
75737;SDS011;64356;45.638;13.764;2023-05-18T07:17:32;10.88;;;2.63;;
75737;SDS011;64356;45.638;13.764;2023-05-18T07:19:58;12.88;;;2.67;;
75737;SDS011;64356;45.638;13.764;2023-05-18T07:22:24;9.40;;;2.25;;
75737;SDS011;64356;45.638;13.764;2023-05-18T07:24:50;9.02;;;1.95;;
75737;SDS011;64356;45.638;13.764;2023-05-18T07:27:15;9.00;;;1.55;;
75737;SDS011;64356;45.638;13.764;2023-05-18T07:29:41;7.47;;;1.33;;
75737;SDS011;64356;45.638;13.764;2023-05-18T07:32:07;8.60;;;1.23;;
75737;SDS011;64356;45.638;13.764;2023-05-18T07:34:32;2.15;;;1.00;;
75737;SDS011;64356;45.638;13.764;2023-05-18T07:36:58;4.32;;;1.10;;
75737;SDS011;64356;45.638;13.764;2023-05-18T07:39:24;4.43;;;1.90;;
75737;SDS011;64356;45.638;13.764;2023-05-18T07:41:53;2.88;;;0.85;;
75737;SDS011;64356;45.638;13.764;2023-05-18T07:44:19;7.20;;;1.10;;
75737;SDS011;64356;45.638;13.764;2023-05-18T07:46:45;5.72;;;1.63;;
75737;SDS011;64356;45.638;13.764;2023-05-18T07:49:11;2.00;;;0.82;;
75737;SDS011;64356;45.638;13.764;2023-05-18T07:51:36;7.82;;;1.17;;
75737;SDS011;64356;45.638;13.764;2023-05-18T07:54:02;4.20;;;1.17;;
75737;SDS011;64356;45.638;13.764;2023-05-18T07:56:29;3.40;;;1.10;;
75737;SDS011;64356;45.638;13.764;2023-05-18T07:58:55;2.85;;;0.88;;
75737;SDS011;64356;45.638;13.764;2023-05-18T08:01:21;15.63;;;2.22;;
75737;SDS011;64356;45.638;13.764;2023-05-18T08:03:51;7.78;;;1.33;;
75737;SDS011;64356;45.638;13.764;2023-05-18T08:06:18;17.63;;;1.27;;
75737;SDS011;64356;45.638;13.764;2023-05-18T08:08:44;17.48;;;1.77;;
75737;SDS011;64356;45.638;13.764;2023-05-18T08:11:10;10.27;;;1.55;;
75737;SDS011;64356;45.638;13.764;2023-05-18T08:13:36;12.05;;;1.42;;
75737;SDS011;64356;45.638;13.764;2023-05-18T08:16:02;8.27;;;1.38;;
75737;SDS011;64356;45.638;13.764;2023-05-18T08:18:28;20.77;;;1.95;;
75737;SDS011;64356;45.638;13.764;2023-05-18T08:20:54;10.88;;;1.35;;
75737;SDS011;64356;45.638;13.764;2023-05-18T08:23:20;23.80;;;1.90;;
75737;SDS011;64356;45.638;13.764;2023-05-18T08:25:46;10.48;;;1.65;;
75737;SDS011;64356;45.638;13.764;2023-05-18T08:28:11;10.43;;;1.90;;
75737;SDS011;64356;45.638;13.764;2023-05-18T08:30:37;8.30;;;1.73;;
75737;SDS011;64356;45.638;13.764;2023-05-18T08:33:03;11.48;;;1.63;;
75737;SDS011;64356;45.638;13.764;2023-05-18T08:35:28;12.15;;;1.15;;
75737;SDS011;64356;45.638;13.764;2023-05-18T08:37:54;9.10;;;1.50;;
75737;SDS011;64356;45.638;13.764;2023-05-18T08:40:20;3.22;;;1.38;;
75737;SDS011;64356;45.638;13.764;2023-05-18T08:42:47;12.07;;;1.40;;
75737;SDS011;64356;45.638;13.764;2023-05-18T08:45:21;15.52;;;1.75;;
75737;SDS011;64356;45.638;13.764;2023-05-18T08:47:54;15.30;;;1.58;;
75737;SDS011;64356;45.638;13.764;2023-05-18T08:50:21;16.15;;;1.65;;
75737;SDS011;64356;45.638;13.764;2023-05-18T08:52:50;16.63;;;1.70;;
75737;SDS011;64356;45.638;13.764;2023-05-18T08:57:48;20.73;;;1.77;;
75737;SDS011;64356;45.638;13.764;2023-05-18T09:00:20;14.27;;;1.90;;
75737;SDS011;64356;45.638;13.764;2023-05-18T09:02:47;29.50;;;1.80;;
75737;SDS011;64356;45.638;13.764;2023-05-18T09:05:13;14.95;;;1.30;;
75737;SDS011;64356;45.638;13.764;2023-05-18T09:07:40;23.23;;;1.75;;
75737;SDS011;64356;45.638;13.764;2023-05-18T09:10:10;13.23;;;1.65;;
75737;SDS011;64356;45.638;13.764;2023-05-18T09:12:37;4.90;;;1.52;;
75737;SDS011;64356;45.638;13.764;2023-05-18T09:15:05;11.55;;;1.63;;
75737;SDS011;64356;45.638;13.764;2023-05-18T09:17:33;4.93;;;1.08;;
75737;SDS011;64356;45.638;13.764;2023-05-18T09:19:59;10.90;;;1.95;;
75737;SDS011;64356;45.638;13.764;2023-05-18T09:22:25;11.55;;;1.30;;
75737;SDS011;64356;45.638;13.764;2023-05-18T09:24:51;10.25;;;1.67;;
75737;SDS011;64356;45.638;13.764;2023-05-18T09:27:17;12.77;;;2.33;;
75737;SDS011;64356;45.638;13.764;2023-05-18T09:29:53;14.75;;;1.40;;
75737;SDS011;64356;45.638;13.764;2023-05-18T09:32:20;14.55;;;1.33;;
75737;SDS011;64356;45.638;13.764;2023-05-18T09:34:47;12.85;;;1.70;;
75737;SDS011;64356;45.638;13.764;2023-05-18T09:37:17;13.95;;;1.98;;
75737;SDS011;64356;45.638;13.764;2023-05-18T09:39:44;9.02;;;1.90;;
75737;SDS011;64356;45.638;13.764;2023-05-18T09:42:22;9.93;;;1.83;;
75737;SDS011;64356;45.638;13.764;2023-05-18T09:44:51;8.37;;;2.60;;
75737;SDS011;64356;45.638;13.764;2023-05-18T09:47:18;8.35;;;1.23;;
75737;SDS011;64356;45.638;13.764;2023-05-18T09:49:44;17.23;;;1.75;;
75737;SDS011;64356;45.638;13.764;2023-05-18T09:52:10;8.90;;;1.80;;
75737;SDS011;64356;45.638;13.764;2023-05-18T09:54:36;19.35;;;1.38;;
75737;SDS011;64356;45.638;13.764;2023-05-18T09:57:02;25.63;;;1.60;;
75737;SDS011;64356;45.638;13.764;2023-05-18T09:59:29;17.77;;;1.52;;
75737;SDS011;64356;45.638;13.764;2023-05-18T10:01:58;16.90;;;2.03;;
75737;SDS011;64356;45.638;13.764;2023-05-18T10:04:38;19.63;;;2.50;;
75737;SDS011;64356;45.638;13.764;2023-05-18T10:07:12;10.43;;;1.45;;
75737;SDS011;64356;45.638;13.764;2023-05-18T10:09:40;17.52;;;2.00;;
75737;SDS011;64356;45.638;13.764;2023-05-18T10:12:12;11.20;;;1.20;;
75737;SDS011;64356;45.638;13.764;2023-05-18T10:14:40;29.55;;;1.80;;
75737;SDS011;64356;45.638;13.764;2023-05-18T10:17:07;10.80;;;1.80;;
75737;SDS011;64356;45.638;13.764;2023-05-18T10:19:39;4.68;;;1.38;;
75737;SDS011;64356;45.638;13.764;2023-05-18T10:22:08;7.78;;;2.15;;
75737;SDS011;64356;45.638;13.764;2023-05-18T10:24:37;10.88;;;2.25;;
75737;SDS011;64356;45.638;13.764;2023-05-18T10:27:07;11.55;;;1.95;;
75737;SDS011;64356;45.638;13.764;2023-05-18T10:29:35;7.25;;;1.65;;
75737;SDS011;64356;45.638;13.764;2023-05-18T10:32:04;5.97;;;1.23;;
75737;SDS011;64356;45.638;13.764;2023-05-18T10:34:31;15.98;;;1.50;;
75737;SDS011;64356;45.638;13.764;2023-05-18T10:36:58;3.75;;;1.50;;
75737;SDS011;64356;45.638;13.764;2023-05-18T10:39:28;5.25;;;1.38;;
75737;SDS011;64356;45.638;13.764;2023-05-18T10:41:56;11.40;;;1.70;;
75737;SDS011;64356;45.638;13.764;2023-05-18T10:44:24;10.85;;;1.70;;
75737;SDS011;64356;45.638;13.764;2023-05-18T10:46:50;5.32;;;1.33;;
75737;SDS011;64356;45.638;13.764;2023-05-18T10:49:18;9.32;;;1.50;;
75737;SDS011;64356;45.638;13.764;2023-05-18T10:54:17;5.97;;;1.67;;
75737;SDS011;64356;45.638;13.764;2023-05-18T10:56:45;17.88;;;1.63;;
75737;SDS011;64356;45.638;13.764;2023-05-18T10:59:14;10.75;;;1.98;;
75737;SDS011;64356;45.638;13.764;2023-05-18T11:01:42;13.77;;;1.60;;
75737;SDS011;64356;45.638;13.764;2023-05-18T11:04:09;13.10;;;1.85;;
75737;SDS011;64356;45.638;13.764;2023-05-18T11:06:35;17.42;;;1.80;;
75737;SDS011;64356;45.638;13.764;2023-05-18T11:09:02;13.45;;;1.90;;
75737;SDS011;64356;45.638;13.764;2023-05-18T11:11:27;14.35;;;1.98;;
75737;SDS011;64356;45.638;13.764;2023-05-18T11:13:58;8.07;;;1.70;;
75737;SDS011;64356;45.638;13.764;2023-05-18T11:16:32;19.50;;;2.35;;
75737;SDS011;64356;45.638;13.764;2023-05-18T11:19:06;12.35;;;3.20;;
75737;SDS011;64356;45.638;13.764;2023-05-18T11:26:57;8.52;;;1.70;;
75737;SDS011;64356;45.638;13.764;2023-05-18T11:29:30;14.77;;;2.58;;
75737;SDS011;64356;45.638;13.764;2023-05-18T11:32:01;11.93;;;2.15;;
75737;SDS011;64356;45.638;13.764;2023-05-18T11:37:08;9.68;;;2.30;;
75737;SDS011;64356;45.638;13.764;2023-05-18T11:39:35;14.63;;;1.98;;
75737;SDS011;64356;45.638;13.764;2023-05-18T11:42:05;13.73;;;2.20;;
75737;SDS011;64356;45.638;13.764;2023-05-18T11:44:35;9.65;;;2.85;;
75737;SDS011;64356;45.638;13.764;2023-05-18T11:47:06;13.50;;;2.53;;
75737;SDS011;64356;45.638;13.764;2023-05-18T11:49:37;18.05;;;2.72;;
75737;SDS011;64356;45.638;13.764;2023-05-18T11:52:15;20.30;;;2.47;;
75737;SDS011;64356;45.638;13.764;2023-05-18T11:57:17;23.17;;;2.67;;
75737;SDS011;64356;45.638;13.764;2023-05-18T11:59:57;12.80;;;3.08;;
75737;SDS011;64356;45.638;13.764;2023-05-18T12:02:29;11.73;;;2.90;;
75737;SDS011;64356;45.638;13.764;2023-05-18T12:04:57;18.08;;;2.65;;
75737;SDS011;64356;45.638;13.764;2023-05-18T12:07:26;13.45;;;1.95;;
75737;SDS011;64356;45.638;13.764;2023-05-18T12:09:56;17.15;;;2.83;;
75737;SDS011;64356;45.638;13.764;2023-05-18T12:12:26;15.85;;;2.17;;
75737;SDS011;64356;45.638;13.764;2023-05-18T12:14:55;26.48;;;2.25;;
75737;SDS011;64356;45.638;13.764;2023-05-18T12:17:22;4.65;;;2.15;;
75737;SDS011;64356;45.638;13.764;2023-05-18T12:20:01;2.05;;;1.50;;
75737;SDS011;64356;45.638;13.764;2023-05-18T12:22:28;8.70;;;2.33;;
75737;SDS011;64356;45.638;13.764;2023-05-18T12:24:54;8.98;;;1.90;;
75737;SDS011;64356;45.638;13.764;2023-05-18T12:27:20;7.75;;;1.90;;
75737;SDS011;64356;45.638;13.764;2023-05-18T12:29:46;4.93;;;1.90;;
75737;SDS011;64356;45.638;13.764;2023-05-18T12:32:13;6.53;;;1.80;;
75737;SDS011;64356;45.638;13.764;2023-05-18T12:34:40;12.82;;;2.08;;
75737;SDS011;64356;45.638;13.764;2023-05-18T12:37:08;13.18;;;2.60;;
75737;SDS011;64356;45.638;13.764;2023-05-18T12:39:34;5.10;;;2.10;;
75737;SDS011;64356;45.638;13.764;2023-05-18T12:42:07;19.23;;;2.40;;
75737;SDS011;64356;45.638;13.764;2023-05-18T12:44:34;3.72;;;2.15;;
75737;SDS011;64356;45.638;13.764;2023-05-18T12:47:00;8.40;;;2.20;;
75737;SDS011;64356;45.638;13.764;2023-05-18T12:49:26;4.15;;;2.20;;
75737;SDS011;64356;45.638;13.764;2023-05-18T12:51:53;10.63;;;1.77;;
75737;SDS011;64356;45.638;13.764;2023-05-18T12:54:26;3.63;;;1.73;;
75737;SDS011;64356;45.638;13.764;2023-05-18T12:56:54;12.23;;;2.03;;
75737;SDS011;64356;45.638;13.764;2023-05-18T12:59:24;5.60;;;1.95;;
75737;SDS011;64356;45.638;13.764;2023-05-18T13:01:51;5.32;;;2.30;;
75737;SDS011;64356;45.638;13.764;2023-05-18T13:04:18;8.25;;;1.85;;
75737;SDS011;64356;45.638;13.764;2023-05-18T13:06:43;5.90;;;2.13;;
75737;SDS011;64356;45.638;13.764;2023-05-18T13:09:13;8.00;;;1.67;;
75737;SDS011;64356;45.638;13.764;2023-05-18T13:11:39;5.85;;;1.80;;
75737;SDS011;64356;45.638;13.764;2023-05-18T13:14:08;4.30;;;1.77;;
75737;SDS011;64356;45.638;13.764;2023-05-18T13:16:37;6.82;;;2.35;;
75737;SDS011;64356;45.638;13.764;2023-05-18T13:19:06;21.83;;;3.13;;
75737;SDS011;64356;45.638;13.764;2023-05-18T13:21:33;8.23;;;1.77;;
75737;SDS011;64356;45.638;13.764;2023-05-18T13:23:59;6.55;;;1.80;;
75737;SDS011;64356;45.638;13.764;2023-05-18T13:26:25;11.95;;;2.38;;
75737;SDS011;64356;45.638;13.764;2023-05-18T13:28:52;3.47;;;1.98;;
75737;SDS011;64356;45.638;13.764;2023-05-18T13:31:20;9.77;;;2.63;;
75737;SDS011;64356;45.638;13.764;2023-05-18T13:33:46;5.90;;;2.13;;
75737;SDS011;64356;45.638;13.764;2023-05-18T13:36:13;30.13;;;2.35;;
75737;SDS011;64356;45.638;13.764;2023-05-18T13:38:38;8.88;;;1.88;;
75737;SDS011;64356;45.638;13.764;2023-05-18T13:41:05;10.18;;;2.70;;
75737;SDS011;64356;45.638;13.764;2023-05-18T13:43:33;12.18;;;2.28;;
75737;SDS011;64356;45.638;13.764;2023-05-18T13:45:59;7.07;;;1.73;;
75737;SDS011;64356;45.638;13.764;2023-05-18T13:48:25;10.15;;;2.03;;
75737;SDS011;64356;45.638;13.764;2023-05-18T13:50:54;9.57;;;2.30;;
75737;SDS011;64356;45.638;13.764;2023-05-18T13:53:20;6.72;;;2.20;;
75737;SDS011;64356;45.638;13.764;2023-05-18T13:55:47;3.55;;;2.13;;
75737;SDS011;64356;45.638;13.764;2023-05-18T13:58:13;4.90;;;2.15;;
75737;SDS011;64356;45.638;13.764;2023-05-18T14:00:38;8.27;;;2.47;;
75737;SDS011;64356;45.638;13.764;2023-05-18T14:03:04;5.75;;;2.35;;
75737;SDS011;64356;45.638;13.764;2023-05-18T14:05:30;3.55;;;2.10;;
75737;SDS011;64356;45.638;13.764;2023-05-18T14:07:55;3.47;;;1.92;;
75737;SDS011;64356;45.638;13.764;2023-05-18T14:10:21;4.00;;;1.73;;
75737;SDS011;64356;45.638;13.764;2023-05-18T14:12:47;4.07;;;2.30;;
75737;SDS011;64356;45.638;13.764;2023-05-18T14:15:13;11.82;;;2.58;;
75737;SDS011;64356;45.638;13.764;2023-05-18T14:17:38;6.72;;;2.17;;
75737;SDS011;64356;45.638;13.764;2023-05-18T14:20:05;13.70;;;2.05;;
75737;SDS011;64356;45.638;13.764;2023-05-18T14:22:32;3.88;;;2.20;;
75737;SDS011;64356;45.638;13.764;2023-05-18T14:24:58;10.82;;;2.38;;
75737;SDS011;64356;45.638;13.764;2023-05-18T14:27:24;4.65;;;2.33;;
75737;SDS011;64356;45.638;13.764;2023-05-18T14:29:50;9.05;;;2.40;;
75737;SDS011;64356;45.638;13.764;2023-05-18T14:32:16;9.48;;;2.53;;
75737;SDS011;64356;45.638;13.764;2023-05-18T14:34:44;12.55;;;2.60;;
75737;SDS011;64356;45.638;13.764;2023-05-18T14:37:10;4.47;;;2.15;;
75737;SDS011;64356;45.638;13.764;2023-05-18T14:39:36;17.55;;;3.28;;
75737;SDS011;64356;45.638;13.764;2023-05-18T14:42:03;11.23;;;2.75;;
75737;SDS011;64356;45.638;13.764;2023-05-18T14:44:29;8.57;;;2.13;;
75737;SDS011;64356;45.638;13.764;2023-05-18T14:46:55;6.18;;;2.05;;
75737;SDS011;64356;45.638;13.764;2023-05-18T14:49:21;8.55;;;2.25;;
75737;SDS011;64356;45.638;13.764;2023-05-18T14:51:47;4.80;;;2.13;;
75737;SDS011;64356;45.638;13.764;2023-05-18T14:54:13;9.73;;;2.35;;
75737;SDS011;64356;45.638;13.764;2023-05-18T14:56:39;8.35;;;2.50;;
75737;SDS011;64356;45.638;13.764;2023-05-18T14:59:05;10.73;;;2.53;;